createdAt,value
2022-07-25T00:02:07.462Z,1.48
2022-07-25T00:04:35.625Z,1.20
2022-07-25T00:07:02.691Z,2.03
2022-07-25T00:09:29.386Z,1.27
2022-07-25T00:11:56.074Z,1.25
2022-07-25T00:14:22.736Z,1.52
2022-07-25T00:16:49.623Z,1.25
2022-07-25T00:19:16.315Z,1.10
2022-07-25T00:21:43.044Z,1.45
2022-07-25T00:24:10.434Z,1.42
2022-07-25T00:26:40.230Z,1.27
2022-07-25T00:29:07.426Z,1.50
2022-07-25T00:31:34.144Z,1.00
2022-07-25T00:34:00.853Z,1.40
2022-07-25T00:36:27.578Z,1.20
2022-07-25T00:38:55.649Z,1.50
2022-07-25T00:41:24.816Z,1.40
2022-07-25T00:43:51.580Z,1.40
2022-07-25T00:46:19.102Z,1.48
2022-07-25T00:48:47.455Z,1.60
2022-07-25T00:51:16.287Z,1.60
2022-07-25T00:53:43.447Z,1.52
2022-07-25T00:56:10.175Z,1.63
2022-07-25T00:58:37.053Z,1.80
2022-07-25T01:01:04.608Z,1.42
2022-07-25T01:03:31.450Z,1.60
2022-07-25T01:05:59.118Z,1.60
2022-07-25T01:08:26.218Z,1.27
2022-07-25T01:10:53.272Z,1.10
2022-07-25T01:13:20.870Z,1.30
2022-07-25T01:15:47.970Z,1.10
2022-07-25T01:18:14.723Z,1.10
2022-07-25T01:20:41.459Z,0.90
2022-07-25T01:23:08.493Z,1.02
2022-07-25T01:25:35.203Z,1.05
2022-07-25T01:28:01.862Z,0.80
2022-07-25T01:30:28.587Z,1.17
2022-07-25T01:32:55.486Z,1.20
2022-07-25T01:35:22.454Z,1.00
2022-07-25T01:37:49.158Z,1.10
2022-07-25T01:40:15.923Z,1.50
2022-07-25T01:42:43.832Z,1.15
2022-07-25T01:45:12.719Z,0.90
2022-07-25T01:47:40.567Z,1.20
2022-07-25T01:50:08.278Z,1.08
2022-07-25T01:52:36.614Z,0.90
2022-07-25T01:55:03.752Z,1.00
2022-07-25T01:57:32.879Z,0.90
2022-07-25T02:00:00.144Z,1.00
2022-07-25T02:02:27.129Z,0.93
2022-07-25T02:04:54.064Z,1.02
2022-07-25T02:07:21.094Z,1.00
2022-07-25T02:09:47.824Z,1.10
2022-07-25T02:12:14.499Z,1.00
2022-07-25T02:14:41.206Z,1.00
2022-07-25T02:17:08.479Z,1.23
2022-07-25T02:19:36.011Z,1.10
2022-07-25T02:22:03.062Z,1.00
2022-07-25T02:24:30.003Z,1.00
2022-07-25T02:26:56.786Z,1.25
2022-07-25T02:29:23.999Z,0.80
2022-07-25T02:31:52.253Z,0.88
2022-07-25T02:34:19.248Z,0.88
2022-07-25T02:36:46.055Z,0.70
2022-07-25T02:39:12.906Z,0.80
2022-07-25T02:41:39.821Z,1.00
2022-07-25T02:44:07.144Z,0.73
2022-07-25T02:46:34.456Z,0.80
2022-07-25T02:49:01.272Z,0.88
2022-07-25T02:51:27.984Z,1.25
2022-07-25T02:53:57.899Z,0.80
2022-07-25T02:56:26.282Z,0.90
2022-07-25T02:58:56.747Z,1.45
2022-07-25T03:01:23.718Z,1.00
2022-07-25T03:03:50.511Z,1.00
2022-07-25T03:06:17.422Z,0.98
2022-07-25T03:08:44.160Z,0.90
2022-07-25T03:11:11.756Z,0.85
2022-07-25T03:13:38.535Z,0.70
2022-07-25T03:16:05.828Z,0.90
2022-07-25T03:18:32.512Z,0.98
2022-07-25T03:20:59.256Z,0.90
2022-07-25T03:23:27.584Z,0.90
2022-07-25T03:25:55.444Z,1.17
2022-07-25T03:28:22.158Z,0.90
2022-07-25T03:30:48.794Z,0.90
2022-07-25T03:33:15.513Z,0.70
2022-07-25T03:35:42.367Z,0.70
2022-07-25T03:38:09.055Z,0.70
2022-07-25T03:40:36.622Z,0.88
2022-07-25T03:43:03.496Z,0.70
2022-07-25T03:45:30.331Z,0.90
2022-07-25T03:47:57.011Z,0.80
2022-07-25T03:50:23.900Z,0.70
2022-07-25T03:52:50.643Z,0.70
2022-07-25T03:55:17.482Z,0.80
2022-07-25T03:57:44.246Z,0.70
2022-07-25T04:00:12.659Z,0.90
2022-07-25T04:02:39.536Z,0.80
2022-07-25T04:05:07.761Z,0.75
2022-07-25T04:07:34.901Z,0.75
2022-07-25T04:10:01.966Z,1.02
2022-07-25T04:12:28.896Z,0.70
2022-07-25T04:14:55.585Z,0.60
2022-07-25T04:17:22.467Z,0.68
2022-07-25T04:19:51.926Z,0.70
2022-07-25T04:22:18.664Z,0.70
2022-07-25T04:24:45.406Z,0.68
2022-07-25T04:27:14.144Z,0.70
2022-07-25T04:29:40.823Z,0.70
2022-07-25T04:32:07.693Z,0.60
2022-07-25T04:34:34.627Z,0.60
2022-07-25T04:37:01.390Z,0.60
2022-07-25T04:39:28.085Z,0.60
2022-07-25T04:41:54.751Z,1.00
2022-07-25T04:44:21.716Z,0.60
2022-07-25T04:46:48.410Z,0.65
2022-07-25T04:49:15.277Z,0.80
2022-07-25T04:51:42.213Z,0.70
2022-07-25T04:54:10.061Z,1.13
2022-07-25T04:56:37.067Z,0.88
2022-07-25T04:59:06.554Z,0.73
2022-07-25T05:01:34.821Z,0.60
2022-07-25T05:04:01.810Z,0.90
2022-07-25T05:06:28.546Z,0.80
2022-07-25T05:08:55.580Z,0.80
2022-07-25T05:11:22.348Z,0.75
2022-07-25T05:13:49.044Z,0.70
2022-07-25T05:16:15.794Z,0.68
2022-07-25T05:18:42.502Z,0.80
2022-07-25T05:21:13.105Z,0.70
2022-07-25T05:23:41.017Z,0.80
2022-07-25T05:26:07.805Z,0.60
2022-07-25T05:28:34.521Z,0.50
2022-07-25T05:31:01.354Z,0.70
2022-07-25T05:33:28.158Z,0.80
2022-07-25T05:35:54.913Z,0.70
2022-07-25T05:38:21.810Z,0.50
2022-07-25T05:40:49.207Z,0.80
2022-07-25T05:43:15.935Z,0.70
2022-07-25T05:45:42.605Z,0.70
2022-07-25T05:48:09.294Z,0.70
2022-07-25T05:50:39.330Z,0.60
2022-07-25T05:53:06.131Z,0.65
2022-07-25T05:55:33.004Z,0.60
2022-07-25T05:57:59.806Z,0.57
2022-07-25T06:00:29.652Z,0.60
2022-07-25T06:02:59.753Z,0.50
2022-07-25T06:05:26.547Z,0.85
2022-07-25T06:07:53.323Z,0.80
2022-07-25T06:10:20.875Z,0.77
2022-07-25T06:12:47.602Z,0.80
2022-07-25T06:15:17.750Z,0.80
2022-07-25T06:17:53.530Z,0.70
2022-07-25T06:20:20.855Z,0.90
2022-07-25T06:22:47.925Z,0.80
2022-07-25T06:25:15.248Z,0.80
2022-07-25T06:27:42.444Z,0.80
2022-07-25T06:30:19.094Z,0.80
2022-07-25T06:32:47.290Z,0.80
2022-07-25T06:35:14.046Z,0.93
2022-07-25T06:37:40.924Z,0.82
2022-07-25T06:40:08.931Z,0.90
2022-07-25T06:42:40.430Z,0.88
2022-07-25T06:45:11.976Z,0.90
2022-07-25T06:47:40.386Z,0.95
2022-07-25T06:50:11.271Z,1.00
2022-07-25T06:52:39.413Z,0.80
2022-07-25T06:55:07.909Z,0.77
2022-07-25T06:57:35.924Z,0.90
2022-07-25T07:00:07.325Z,0.90
2022-07-25T07:02:34.054Z,0.77
2022-07-25T07:05:00.835Z,1.25
2022-07-25T07:07:27.840Z,0.80
2022-07-25T07:09:54.639Z,0.73
2022-07-25T07:12:22.165Z,0.52
2022-07-25T07:14:49.057Z,0.60
2022-07-25T07:17:15.885Z,1.00
2022-07-25T07:19:45.911Z,0.50
2022-07-25T08:32:32.857Z,0.50
2022-07-25T08:40:23.798Z,0.47
2022-07-25T08:42:51.473Z,0.50
2022-07-25T08:45:23.426Z,0.50
2022-07-25T09:01:08.901Z,0.63
2022-07-25T09:03:36.987Z,0.73
2022-07-25T09:06:21.319Z,0.70
2022-07-25T09:08:59.745Z,0.65
2022-07-25T09:11:37.647Z,0.70
2022-07-25T09:14:14.986Z,0.65
2022-07-25T09:16:44.526Z,0.60
2022-07-25T09:19:14.822Z,0.70
2022-07-25T09:21:44.078Z,0.70
2022-07-25T09:24:22.631Z,0.60
2022-07-25T09:26:54.229Z,0.70
2022-07-25T09:29:25.295Z,0.60
2022-07-25T09:31:54.288Z,0.70
2022-07-25T09:34:40.695Z,0.70
2022-07-25T09:37:13.493Z,0.70
2022-07-25T09:39:46.819Z,1.02
2022-07-25T09:42:27.829Z,0.60
2022-07-25T09:45:15.362Z,0.80
2022-07-25T09:47:56.774Z,0.70
2022-07-25T09:50:25.480Z,0.70
2022-07-25T09:52:54.753Z,0.70
2022-07-25T09:55:22.307Z,0.88
2022-07-25T09:57:50.296Z,0.80
2022-07-25T10:00:23.612Z,0.80
2022-07-25T10:02:59.664Z,0.80
2022-07-25T10:05:47.862Z,0.63
2022-07-25T10:08:15.279Z,0.80
2022-07-25T10:10:42.609Z,0.70
2022-07-25T10:13:17.276Z,0.88
2022-07-25T10:15:51.612Z,0.80
2022-07-25T10:18:28.625Z,0.75
2022-07-25T10:21:26.064Z,1.02
2022-07-25T10:24:05.447Z,0.70
2022-07-25T10:26:35.312Z,0.90
2022-07-25T10:29:09.264Z,0.80
2022-07-25T10:31:39.773Z,0.80
2022-07-25T10:34:09.190Z,0.93
2022-07-25T10:36:52.192Z,1.33
2022-07-25T10:39:21.524Z,0.93
2022-07-25T10:41:58.711Z,0.90
2022-07-25T10:44:31.176Z,0.90
2022-07-25T10:47:12.737Z,0.90
2022-07-25T10:50:13.329Z,1.17
2022-07-25T10:52:32.549Z,1.00
2022-07-25T10:55:00.885Z,1.30
2022-07-25T10:57:31.937Z,0.90
2022-07-25T11:00:07.538Z,1.00
2022-07-25T11:02:34.417Z,1.13
2022-07-25T11:05:03.339Z,1.13
2022-07-25T11:07:36.273Z,1.20
2022-07-25T11:10:05.791Z,1.40
2022-07-25T11:12:33.630Z,0.85
2022-07-25T11:15:02.919Z,1.05
2022-07-25T11:17:30.509Z,0.80
2022-07-25T11:19:58.510Z,0.93
2022-07-25T11:22:26.297Z,1.00
2022-07-25T11:24:53.677Z,1.13
2022-07-25T11:27:30.830Z,0.98
2022-07-25T11:30:12.143Z,0.98
2022-07-25T11:32:41.026Z,1.00
2022-07-25T11:35:08.837Z,0.95
2022-07-25T11:37:39.406Z,1.20
2022-07-25T11:40:07.596Z,0.90
2022-07-25T11:42:42.353Z,1.35
2022-07-25T11:45:22.557Z,1.20
2022-07-25T11:48:35.910Z,1.20
2022-07-25T11:51:18.331Z,1.53
2022-07-25T11:53:50.562Z,1.50
2022-07-25T11:59:11.333Z,1.52
2022-07-25T12:01:40.674Z,1.73
2022-07-25T12:04:20.634Z,2.20
2022-07-25T12:06:50.899Z,1.75
2022-07-25T12:09:22.526Z,1.75
2022-07-25T12:11:49.890Z,1.90
2022-07-25T12:14:17.341Z,2.20
2022-07-25T12:16:44.666Z,1.70
2022-07-25T12:19:20.438Z,2.08
2022-07-25T12:21:47.734Z,1.70
2022-07-25T12:24:14.556Z,1.63
2022-07-25T12:26:41.889Z,2.42
2022-07-25T12:29:09.150Z,2.28
2022-07-25T12:31:36.337Z,2.75
2022-07-25T12:34:05.161Z,2.35
2022-07-25T12:36:32.566Z,2.65
2022-07-25T12:38:59.370Z,2.92
2022-07-25T12:41:26.398Z,2.60
2022-07-25T12:43:53.317Z,2.33
2022-07-25T12:46:20.240Z,2.40
2022-07-25T12:48:47.983Z,2.20
2022-07-25T12:51:14.941Z,2.30
2022-07-25T12:53:42.667Z,2.60
2022-07-25T12:56:10.083Z,2.20
2022-07-25T12:58:37.830Z,2.50
2022-07-25T13:01:06.367Z,2.45
2022-07-25T13:03:33.591Z,2.05
2022-07-25T13:06:00.469Z,2.30
2022-07-25T13:08:27.638Z,3.10
2022-07-25T13:10:54.414Z,2.05
2022-07-25T13:13:21.206Z,2.15
2022-07-25T13:15:48.089Z,3.08
2022-07-25T13:18:14.878Z,1.52
2022-07-25T13:20:42.981Z,1.88
2022-07-25T13:23:09.787Z,2.03
2022-07-25T13:25:36.646Z,2.45
2022-07-25T13:28:08.568Z,2.05
2022-07-25T13:30:38.012Z,2.13
2022-07-25T13:33:04.905Z,2.58
2022-07-25T13:35:38.172Z,2.50
2022-07-25T13:38:05.963Z,2.67
2022-07-25T13:40:33.037Z,2.55
2022-07-25T13:42:59.793Z,1.95
2022-07-25T13:45:26.592Z,2.05
2022-07-25T13:48:12.035Z,2.33
2022-07-25T13:50:40.177Z,2.20
2022-07-25T13:53:07.176Z,2.35
2022-07-25T13:55:34.065Z,1.80
2022-07-25T13:58:01.054Z,2.58
2022-07-25T14:00:27.851Z,1.95
2022-07-25T14:02:54.582Z,2.08
2022-07-25T14:05:21.376Z,1.77
2022-07-25T14:07:48.220Z,1.80
2022-07-25T14:10:14.968Z,2.08
2022-07-25T14:12:41.746Z,2.40
2022-07-25T14:15:09.067Z,2.28
2022-07-25T14:17:35.991Z,1.85
2022-07-25T14:20:03.782Z,2.30
2022-07-25T14:22:30.472Z,2.33
2022-07-25T14:24:57.336Z,1.48
2022-07-25T14:27:24.581Z,2.38
2022-07-25T14:29:51.622Z,2.38
2022-07-25T14:32:18.495Z,2.45
2022-07-25T14:34:45.431Z,2.03
2022-07-25T14:37:12.381Z,2.72
2022-07-25T14:39:39.243Z,2.17
2022-07-25T14:42:06.655Z,2.95
2022-07-25T14:44:33.390Z,3.03
2022-07-25T14:47:00.395Z,2.40
2022-07-25T14:49:29.168Z,2.00
2022-07-25T14:51:55.989Z,2.40
2022-07-25T14:54:22.840Z,3.28
2022-07-25T14:56:49.676Z,1.92
2022-07-25T14:59:17.792Z,2.70
2022-07-25T15:01:44.775Z,2.50
2022-07-25T15:04:11.533Z,2.30
2022-07-25T15:06:38.692Z,2.20
2022-07-25T15:09:06.580Z,2.47
2022-07-25T15:11:33.628Z,2.50
2022-07-25T15:14:00.431Z,2.30
2022-07-25T15:16:28.179Z,1.90
2022-07-25T15:19:26.081Z,2.72
2022-07-25T15:21:46.637Z,1.92
2022-07-25T15:24:14.621Z,2.42
2022-07-25T15:26:41.609Z,3.20
2022-07-25T15:29:10.772Z,2.53
2022-07-25T15:31:38.266Z,2.85
2022-07-25T15:34:07.012Z,2.50
2022-07-25T15:36:33.872Z,2.78
2022-07-25T15:39:00.722Z,2.10
2022-07-25T15:41:27.543Z,2.33
2022-07-25T15:43:54.631Z,2.30
2022-07-25T15:46:21.500Z,2.70
2022-07-25T15:48:49.548Z,2.70
2022-07-25T15:51:19.692Z,2.38
2022-07-25T15:53:46.499Z,3.05
2022-07-25T15:56:16.585Z,2.10
2022-07-25T15:58:44.334Z,2.72
2022-07-25T16:01:11.424Z,1.92
2022-07-25T16:03:38.519Z,2.53
2022-07-25T16:06:05.453Z,2.85
2022-07-25T16:08:32.473Z,2.42
2022-07-25T16:11:00.019Z,3.38
2022-07-25T16:13:27.099Z,2.25
2022-07-25T16:15:57.202Z,2.75
2022-07-25T16:18:24.233Z,2.47
2022-07-25T16:20:51.053Z,2.88
2022-07-25T16:23:17.998Z,2.63
2022-07-25T16:25:44.974Z,3.10
2022-07-25T16:28:11.872Z,3.13
2022-07-25T16:30:38.775Z,3.00
2022-07-25T16:33:05.884Z,2.88
2022-07-25T16:35:33.036Z,3.53
2022-07-25T16:38:00.645Z,3.30
2022-07-25T16:40:30.806Z,3.60
2022-07-25T16:42:59.481Z,2.85
2022-07-25T16:45:26.914Z,3.70
2022-07-25T16:47:53.868Z,2.97
2022-07-25T16:50:24.102Z,2.80
2022-07-25T16:52:50.938Z,2.35
2022-07-25T16:55:18.085Z,3.03
2022-07-25T16:57:44.920Z,2.90
2022-07-25T17:00:12.429Z,2.30
2022-07-25T17:02:40.225Z,2.58
2022-07-25T17:05:07.317Z,2.35
2022-07-25T17:07:34.781Z,2.40
2022-07-25T17:10:02.937Z,3.05
2022-07-25T17:15:11.000Z,2.47
2022-07-25T17:17:38.428Z,3.20
2022-07-25T17:20:06.057Z,2.95
2022-07-25T17:22:33.877Z,2.97
2022-07-25T17:25:01.039Z,2.03
2022-07-25T17:27:28.344Z,2.20
2022-07-25T17:29:57.092Z,2.58
2022-07-25T17:32:29.399Z,2.20
2022-07-25T17:34:56.896Z,2.75
2022-07-25T17:37:27.289Z,2.45
2022-07-25T17:39:55.084Z,2.40
2022-07-25T17:42:24.795Z,2.78
2022-07-25T17:44:52.758Z,3.13
2022-07-25T17:47:19.699Z,2.00
2022-07-25T17:49:46.710Z,2.33
2022-07-25T17:52:13.562Z,2.85
2022-07-25T17:54:40.290Z,2.88
2022-07-25T17:57:07.407Z,2.65
2022-07-25T17:59:34.546Z,2.63
2022-07-25T18:02:02.801Z,2.10
2022-07-25T18:04:29.553Z,2.63
2022-07-25T18:06:56.707Z,2.63
2022-07-25T18:09:24.322Z,2.67
2022-07-25T18:11:51.567Z,2.25
2022-07-25T18:14:18.413Z,2.47
2022-07-25T18:16:45.628Z,2.40
2022-07-25T18:19:13.127Z,2.60
2022-07-25T18:21:40.028Z,2.38
2022-07-25T18:24:07.503Z,2.38
2022-07-25T18:26:34.848Z,2.50
2022-07-25T18:29:01.760Z,2.42
2022-07-25T18:31:28.635Z,2.92
2022-07-25T18:33:55.435Z,2.20
2022-07-25T18:36:22.367Z,1.85
2022-07-25T18:38:49.593Z,2.05
2022-07-25T18:41:29.372Z,2.47
2022-07-25T18:43:56.605Z,2.15
2022-07-25T18:46:24.060Z,1.90
2022-07-25T18:48:51.396Z,2.55
2022-07-25T18:51:18.255Z,1.92
2022-07-25T18:53:48.265Z,2.10
2022-07-25T18:56:16.466Z,2.00
2022-07-25T18:58:43.780Z,2.65
2022-07-25T19:01:10.654Z,2.38
2022-07-25T19:03:37.930Z,2.47
2022-07-25T19:06:07.091Z,1.88
2022-07-25T19:08:34.172Z,2.38
2022-07-25T19:11:00.864Z,2.63
2022-07-25T19:13:48.372Z,2.03
2022-07-25T19:16:15.315Z,2.40
2022-07-25T19:18:42.757Z,2.80
2022-07-25T19:21:09.518Z,2.72
2022-07-25T19:23:36.230Z,2.70
2022-07-25T19:26:03.847Z,2.38
2022-07-25T19:28:30.662Z,2.00
2022-07-25T19:30:57.504Z,2.42
2022-07-25T19:33:24.535Z,2.47
2022-07-25T19:35:51.332Z,3.10
2022-07-25T19:38:20.194Z,2.22
2022-07-25T19:40:47.002Z,2.40
2022-07-25T19:43:13.753Z,3.05
2022-07-25T19:45:40.845Z,2.33
2022-07-25T19:48:08.010Z,1.85
2022-07-25T19:50:34.820Z,1.98
2022-07-25T19:53:01.585Z,2.47
2022-07-25T19:55:28.839Z,2.30
2022-07-25T19:57:55.540Z,2.63
2022-07-25T20:00:22.473Z,2.85
2022-07-25T20:02:49.468Z,1.48
2022-07-25T20:05:17.458Z,2.22
2022-07-25T20:07:44.147Z,3.00
2022-07-25T20:10:11.077Z,2.38
2022-07-25T20:12:38.560Z,2.30
2022-07-25T20:15:05.868Z,2.30
2022-07-25T20:17:32.596Z,1.90
2022-07-25T20:20:00.169Z,2.05
2022-07-25T20:22:27.025Z,2.42
2022-07-25T20:24:53.769Z,2.03
2022-07-25T20:27:20.464Z,2.28
2022-07-25T20:29:47.198Z,2.58
2022-07-25T20:32:13.889Z,2.35
2022-07-25T20:34:40.559Z,2.80
2022-07-25T20:37:07.331Z,1.73
2022-07-25T20:39:34.049Z,1.83
2022-07-25T20:42:01.416Z,1.80
2022-07-25T20:44:28.342Z,2.40
2022-07-25T20:46:55.616Z,1.77
2022-07-25T20:49:23.801Z,1.80
2022-07-25T20:51:54.482Z,2.53
2022-07-25T20:54:21.819Z,2.33
2022-07-25T20:56:48.618Z,1.75
2022-07-25T20:59:15.426Z,1.98
2022-07-25T21:01:42.613Z,2.35
2022-07-25T21:04:09.728Z,2.00
2022-07-25T21:06:36.656Z,1.58
2022-07-25T21:09:04.692Z,1.90
2022-07-25T21:11:31.585Z,1.83
2022-07-25T21:13:58.343Z,1.60
2022-07-25T21:16:27.414Z,1.80
2022-07-25T21:18:56.067Z,1.77
2022-07-25T21:21:26.557Z,1.80
2022-07-25T21:23:53.822Z,1.77
2022-07-25T21:26:20.704Z,1.50
2022-07-25T21:28:47.480Z,2.20
2022-07-25T21:31:14.256Z,1.67
2022-07-25T21:33:42.297Z,1.98
2022-07-25T21:36:09.314Z,2.28
2022-07-25T21:38:37.183Z,1.50
2022-07-25T21:41:05.505Z,2.40
2022-07-25T21:43:32.312Z,2.08
2022-07-25T21:45:59.073Z,1.85
2022-07-25T21:48:44.415Z,1.75
2022-07-25T21:51:18.614Z,2.25
2022-07-25T21:53:46.680Z,1.77
2022-07-25T21:56:17.377Z,1.83
2022-07-25T21:58:44.157Z,2.20
2022-07-25T22:01:10.953Z,1.60
2022-07-25T22:03:37.938Z,1.65
2022-07-25T22:06:04.714Z,1.63
2022-07-25T22:08:31.483Z,2.00
2022-07-25T22:10:58.518Z,2.10
2022-07-25T22:13:25.428Z,1.73
2022-07-25T22:15:52.181Z,1.70
2022-07-25T22:18:19.346Z,1.48
2022-07-25T22:20:47.801Z,1.58
2022-07-25T22:23:17.379Z,1.42
2022-07-25T22:25:44.109Z,1.60
2022-07-25T22:28:14.203Z,1.70
2022-07-25T22:30:41.330Z,1.20
2022-07-25T22:33:07.981Z,1.77
2022-07-25T22:35:34.723Z,1.73
2022-07-25T22:38:01.481Z,1.23
2022-07-25T22:40:28.225Z,1.30
2022-07-25T22:42:54.953Z,1.02
2022-07-25T22:45:27.012Z,1.65
2022-07-25T22:47:56.788Z,1.40
2022-07-25T22:50:23.812Z,1.13
2022-07-25T22:52:50.914Z,1.23
2022-07-25T22:55:17.749Z,1.30
2022-07-25T22:57:44.593Z,1.45
2022-07-25T23:00:12.644Z,1.30
2022-07-25T23:02:42.729Z,1.63
2022-07-25T23:05:12.246Z,1.13
2022-07-25T23:07:39.786Z,1.30
2022-07-25T23:10:07.281Z,1.10
2022-07-25T23:12:34.315Z,1.33
2022-07-25T23:15:01.288Z,1.30
2022-07-25T23:17:28.062Z,1.30
2022-07-25T23:19:56.431Z,1.35
2022-07-25T23:22:25.404Z,1.30
2022-07-25T23:24:52.405Z,1.33
2022-07-25T23:27:19.186Z,1.25
2022-07-25T23:29:45.885Z,1.20
2022-07-25T23:32:12.824Z,1.23
2022-07-25T23:34:39.565Z,1.60
2022-07-25T23:37:06.581Z,1.70
2022-07-25T23:39:33.789Z,1.30
2022-07-25T23:42:01.014Z,1.27
2022-07-25T23:44:27.793Z,1.40
2022-07-25T23:46:57.458Z,1.20
2022-07-25T23:49:24.507Z,1.30
2022-07-25T23:51:51.811Z,1.20
2022-07-25T23:54:18.593Z,1.30
2022-07-25T23:56:45.422Z,1.23
2022-07-25T23:59:12.142Z,1.35
